sensor_id;sensor_type;location;lat;lon;timestamp;P1;durP1;ratioP1;P2;durP2;ratioP2
68653;SDS011;55636;51.108;13.622;2024-03-29T00:00:58;0.87;;;0.80;;
68653;SDS011;55636;51.108;13.622;2024-03-29T00:02:01;1.23;;;0.90;;
68653;SDS011;55636;51.108;13.622;2024-03-29T00:03:02;1.37;;;0.87;;
68653;SDS011;55636;51.108;13.622;2024-03-29T00:04:04;0.80;;;0.80;;
68653;SDS011;55636;51.108;13.622;2024-03-29T00:05:06;1.57;;;0.80;;
68653;SDS011;55636;51.108;13.622;2024-03-29T00:06:08;1.20;;;1.00;;
68653;SDS011;55636;51.108;13.622;2024-03-29T00:07:09;1.67;;;1.03;;
68653;SDS011;55636;51.108;13.622;2024-03-29T00:08:10;1.80;;;1.03;;
68653;SDS011;55636;51.108;13.622;2024-03-29T00:09:12;2.33;;;1.00;;
68653;SDS011;55636;51.108;13.622;2024-03-29T00:10:14;1.00;;;0.90;;
68653;SDS011;55636;51.108;13.622;2024-03-29T00:11:15;0.97;;;0.90;;
68653;SDS011;55636;51.108;13.622;2024-03-29T00:12:16;1.77;;;1.00;;
68653;SDS011;55636;51.108;13.622;2024-03-29T00:13:17;2.27;;;1.10;;
68653;SDS011;55636;51.108;13.622;2024-03-29T00:14:19;1.03;;;1.00;;
68653;SDS011;55636;51.108;13.622;2024-03-29T00:15:20;1.00;;;0.90;;
68653;SDS011;55636;51.108;13.622;2024-03-29T00:16:21;1.43;;;1.00;;
68653;SDS011;55636;51.108;13.622;2024-03-29T00:17:26;1.07;;;0.80;;
68653;SDS011;55636;51.108;13.622;2024-03-29T00:18:27;2.03;;;0.97;;
68653;SDS011;55636;51.108;13.622;2024-03-29T00:19:28;1.13;;;0.90;;
68653;SDS011;55636;51.108;13.622;2024-03-29T00:20:29;1.07;;;0.90;;
68653;SDS011;55636;51.108;13.622;2024-03-29T00:21:31;0.80;;;0.80;;
68653;SDS011;55636;51.108;13.622;2024-03-29T00:22:32;1.30;;;0.80;;
68653;SDS011;55636;51.108;13.622;2024-03-29T00:23:33;1.27;;;0.90;;
68653;SDS011;55636;51.108;13.622;2024-03-29T00:24:35;0.80;;;0.80;;
68653;SDS011;55636;51.108;13.622;2024-03-29T00:25:37;0.97;;;0.90;;
68653;SDS011;55636;51.108;13.622;2024-03-29T00:26:38;0.97;;;0.90;;
68653;SDS011;55636;51.108;13.622;2024-03-29T00:27:39;0.80;;;0.80;;
68653;SDS011;55636;51.108;13.622;2024-03-29T00:28:40;1.20;;;0.97;;
68653;SDS011;55636;51.108;13.622;2024-03-29T00:29:41;0.90;;;0.80;;
68653;SDS011;55636;51.108;13.622;2024-03-29T00:30:44;1.67;;;1.00;;
68653;SDS011;55636;51.108;13.622;2024-03-29T00:31:45;0.93;;;0.87;;
68653;SDS011;55636;51.108;13.622;2024-03-29T00:32:47;1.50;;;0.90;;
68653;SDS011;55636;51.108;13.622;2024-03-29T00:33:48;1.17;;;0.80;;
68653;SDS011;55636;51.108;13.622;2024-03-29T00:34:50;1.80;;;0.80;;
68653;SDS011;55636;51.108;13.622;2024-03-29T00:35:52;1.00;;;0.90;;
68653;SDS011;55636;51.108;13.622;2024-03-29T00:36:53;1.13;;;0.87;;
68653;SDS011;55636;51.108;13.622;2024-03-29T00:37:54;1.70;;;0.83;;
68653;SDS011;55636;51.108;13.622;2024-03-29T00:38:56;1.40;;;1.03;;
68653;SDS011;55636;51.108;13.622;2024-03-29T00:39:57;1.07;;;0.80;;
68653;SDS011;55636;51.108;13.622;2024-03-29T00:40:58;0.97;;;0.90;;
68653;SDS011;55636;51.108;13.622;2024-03-29T00:41:59;1.23;;;0.80;;
68653;SDS011;55636;51.108;13.622;2024-03-29T00:43:01;1.00;;;0.90;;
68653;SDS011;55636;51.108;13.622;2024-03-29T00:44:02;2.63;;;1.10;;
68653;SDS011;55636;51.108;13.622;2024-03-29T00:45:04;1.10;;;0.90;;
68653;SDS011;55636;51.108;13.622;2024-03-29T00:46:06;0.80;;;0.80;;
68653;SDS011;55636;51.108;13.622;2024-03-29T00:47:07;1.37;;;1.03;;
68653;SDS011;55636;51.108;13.622;2024-03-29T00:48:09;1.37;;;0.80;;
68653;SDS011;55636;51.108;13.622;2024-03-29T00:49:10;0.90;;;0.90;;
68653;SDS011;55636;51.108;13.622;2024-03-29T00:50:11;1.10;;;1.00;;
68653;SDS011;55636;51.108;13.622;2024-03-29T00:51:13;0.97;;;0.97;;
68653;SDS011;55636;51.108;13.622;2024-03-29T00:52:14;1.00;;;0.80;;
68653;SDS011;55636;51.108;13.622;2024-03-29T00:53:15;0.90;;;0.80;;
68653;SDS011;55636;51.108;13.622;2024-03-29T00:54:17;1.13;;;0.80;;
68653;SDS011;55636;51.108;13.622;2024-03-29T00:55:19;1.40;;;0.90;;
68653;SDS011;55636;51.108;13.622;2024-03-29T00:56:20;1.80;;;1.10;;
68653;SDS011;55636;51.108;13.622;2024-03-29T00:57:22;1.17;;;0.83;;
68653;SDS011;55636;51.108;13.622;2024-03-29T00:58:23;1.57;;;0.90;;
68653;SDS011;55636;51.108;13.622;2024-03-29T00:59:24;1.10;;;0.70;;
68653;SDS011;55636;51.108;13.622;2024-03-29T01:00:25;1.37;;;0.87;;
68653;SDS011;55636;51.108;13.622;2024-03-29T01:01:26;1.27;;;0.80;;
68653;SDS011;55636;51.108;13.622;2024-03-29T01:02:28;1.07;;;0.90;;
68653;SDS011;55636;51.108;13.622;2024-03-29T01:03:29;1.13;;;1.00;;
68653;SDS011;55636;51.108;13.622;2024-03-29T01:04:32;1.40;;;0.93;;
68653;SDS011;55636;51.108;13.622;2024-03-29T01:05:33;1.27;;;0.90;;
68653;SDS011;55636;51.108;13.622;2024-03-29T01:06:35;0.83;;;0.80;;
68653;SDS011;55636;51.108;13.622;2024-03-29T01:07:36;1.30;;;0.80;;
68653;SDS011;55636;51.108;13.622;2024-03-29T01:08:37;0.97;;;0.90;;
68653;SDS011;55636;51.108;13.622;2024-03-29T01:09:38;1.50;;;1.00;;
68653;SDS011;55636;51.108;13.622;2024-03-29T01:10:39;1.13;;;1.00;;
68653;SDS011;55636;51.108;13.622;2024-03-29T01:11:40;1.27;;;1.00;;
68653;SDS011;55636;51.108;13.622;2024-03-29T01:12:41;0.83;;;0.77;;
68653;SDS011;55636;51.108;13.622;2024-03-29T01:13:43;0.90;;;0.80;;
68653;SDS011;55636;51.108;13.622;2024-03-29T01:14:45;1.60;;;1.03;;
68653;SDS011;55636;51.108;13.622;2024-03-29T01:15:46;1.00;;;0.90;;
68653;SDS011;55636;51.108;13.622;2024-03-29T01:16:48;1.87;;;1.10;;
68653;SDS011;55636;51.108;13.622;2024-03-29T01:17:49;1.27;;;0.77;;
68653;SDS011;55636;51.108;13.622;2024-03-29T01:18:50;1.00;;;0.90;;
68653;SDS011;55636;51.108;13.622;2024-03-29T01:19:53;1.43;;;0.80;;
68653;SDS011;55636;51.108;13.622;2024-03-29T01:20:54;1.53;;;0.73;;
68653;SDS011;55636;51.108;13.622;2024-03-29T01:21:55;0.90;;;0.80;;
68653;SDS011;55636;51.108;13.622;2024-03-29T01:22:57;1.50;;;0.90;;
68653;SDS011;55636;51.108;13.622;2024-03-29T01:23:58;0.90;;;0.80;;
68653;SDS011;55636;51.108;13.622;2024-03-29T01:24:59;0.70;;;0.70;;
68653;SDS011;55636;51.108;13.622;2024-03-29T01:26:00;1.40;;;0.80;;
68653;SDS011;55636;51.108;13.622;2024-03-29T01:27:01;1.23;;;0.90;;
68653;SDS011;55636;51.108;13.622;2024-03-29T01:28:07;1.27;;;0.90;;
68653;SDS011;55636;51.108;13.622;2024-03-29T01:29:08;1.60;;;0.90;;
68653;SDS011;55636;51.108;13.622;2024-03-29T01:30:09;1.33;;;0.90;;
68653;SDS011;55636;51.108;13.622;2024-03-29T01:31:11;1.53;;;0.93;;
68653;SDS011;55636;51.108;13.622;2024-03-29T01:32:13;1.17;;;0.80;;
68653;SDS011;55636;51.108;13.622;2024-03-29T01:33:14;1.63;;;0.90;;
68653;SDS011;55636;51.108;13.622;2024-03-29T01:34:16;1.70;;;0.83;;
68653;SDS011;55636;51.108;13.622;2024-03-29T01:35:18;1.03;;;0.70;;
68653;SDS011;55636;51.108;13.622;2024-03-29T01:36:19;1.60;;;1.00;;
68653;SDS011;55636;51.108;13.622;2024-03-29T01:37:22;1.93;;;0.97;;
68653;SDS011;55636;51.108;13.622;2024-03-29T01:38:23;1.57;;;1.07;;
68653;SDS011;55636;51.108;13.622;2024-03-29T01:39:25;1.10;;;1.00;;
68653;SDS011;55636;51.108;13.622;2024-03-29T01:40:32;1.27;;;0.80;;
68653;SDS011;55636;51.108;13.622;2024-03-29T01:41:33;1.93;;;0.77;;
68653;SDS011;55636;51.108;13.622;2024-03-29T01:42:34;1.47;;;0.97;;
68653;SDS011;55636;51.108;13.622;2024-03-29T01:43:35;1.80;;;0.97;;
68653;SDS011;55636;51.108;13.622;2024-03-29T01:44:36;1.30;;;0.90;;
68653;SDS011;55636;51.108;13.622;2024-03-29T01:45:38;1.20;;;0.80;;
68653;SDS011;55636;51.108;13.622;2024-03-29T01:46:41;1.73;;;0.93;;
68653;SDS011;55636;51.108;13.622;2024-03-29T01:47:42;3.43;;;1.00;;
68653;SDS011;55636;51.108;13.622;2024-03-29T01:48:43;1.10;;;0.80;;
68653;SDS011;55636;51.108;13.622;2024-03-29T01:49:44;1.73;;;1.00;;
68653;SDS011;55636;51.108;13.622;2024-03-29T01:50:47;1.83;;;0.87;;
68653;SDS011;55636;51.108;13.622;2024-03-29T01:51:48;0.90;;;0.80;;
68653;SDS011;55636;51.108;13.622;2024-03-29T01:52:50;1.13;;;0.90;;
68653;SDS011;55636;51.108;13.622;2024-03-29T01:53:52;1.40;;;1.07;;
68653;SDS011;55636;51.108;13.622;2024-03-29T01:54:57;1.17;;;0.87;;
68653;SDS011;55636;51.108;13.622;2024-03-29T01:55:59;0.70;;;0.70;;
68653;SDS011;55636;51.108;13.622;2024-03-29T01:57:02;1.03;;;0.90;;
68653;SDS011;55636;51.108;13.622;2024-03-29T01:58:04;0.80;;;0.80;;
68653;SDS011;55636;51.108;13.622;2024-03-29T01:59:05;1.10;;;1.00;;
68653;SDS011;55636;51.108;13.622;2024-03-29T02:00:14;1.00;;;0.90;;
68653;SDS011;55636;51.108;13.622;2024-03-29T02:01:16;1.23;;;0.97;;
68653;SDS011;55636;51.108;13.622;2024-03-29T02:02:19;1.87;;;1.07;;
68653;SDS011;55636;51.108;13.622;2024-03-29T02:03:21;1.43;;;1.07;;
68653;SDS011;55636;51.108;13.622;2024-03-29T02:04:22;1.30;;;1.20;;
68653;SDS011;55636;51.108;13.622;2024-03-29T02:05:24;1.93;;;1.10;;
68653;SDS011;55636;51.108;13.622;2024-03-29T02:06:26;1.30;;;1.00;;
68653;SDS011;55636;51.108;13.622;2024-03-29T02:07:28;2.13;;;1.20;;
68653;SDS011;55636;51.108;13.622;2024-03-29T02:08:30;1.13;;;1.03;;
68653;SDS011;55636;51.108;13.622;2024-03-29T02:09:31;0.97;;;0.90;;
68653;SDS011;55636;51.108;13.622;2024-03-29T02:10:32;1.87;;;1.20;;
68653;SDS011;55636;51.108;13.622;2024-03-29T02:11:34;2.97;;;1.20;;
68653;SDS011;55636;51.108;13.622;2024-03-29T02:12:37;1.47;;;1.00;;
68653;SDS011;55636;51.108;13.622;2024-03-29T02:13:39;1.57;;;1.03;;
68653;SDS011;55636;51.108;13.622;2024-03-29T02:14:41;1.07;;;0.90;;
68653;SDS011;55636;51.108;13.622;2024-03-29T02:15:43;0.80;;;0.73;;
68653;SDS011;55636;51.108;13.622;2024-03-29T02:16:44;1.40;;;1.07;;
68653;SDS011;55636;51.108;13.622;2024-03-29T02:17:47;1.67;;;1.00;;
68653;SDS011;55636;51.108;13.622;2024-03-29T02:18:48;1.10;;;0.80;;
68653;SDS011;55636;51.108;13.622;2024-03-29T02:19:49;3.00;;;1.50;;
68653;SDS011;55636;51.108;13.622;2024-03-29T02:20:52;1.07;;;0.87;;
68653;SDS011;55636;51.108;13.622;2024-03-29T02:21:53;1.33;;;0.90;;
68653;SDS011;55636;51.108;13.622;2024-03-29T02:23:08;1.40;;;0.90;;
68653;SDS011;55636;51.108;13.622;2024-03-29T02:24:12;1.13;;;1.00;;
68653;SDS011;55636;51.108;13.622;2024-03-29T02:25:17;1.03;;;0.93;;
68653;SDS011;55636;51.108;13.622;2024-03-29T02:26:18;1.67;;;1.10;;
68653;SDS011;55636;51.108;13.622;2024-03-29T02:27:20;1.10;;;1.00;;
68653;SDS011;55636;51.108;13.622;2024-03-29T02:28:22;1.40;;;1.13;;
68653;SDS011;55636;51.108;13.622;2024-03-29T02:29:24;1.70;;;1.00;;
68653;SDS011;55636;51.108;13.622;2024-03-29T02:30:25;1.30;;;1.00;;
68653;SDS011;55636;51.108;13.622;2024-03-29T02:31:26;1.10;;;1.00;;
68653;SDS011;55636;51.108;13.622;2024-03-29T02:32:28;1.70;;;1.30;;
68653;SDS011;55636;51.108;13.622;2024-03-29T02:33:29;1.87;;;1.10;;
68653;SDS011;55636;51.108;13.622;2024-03-29T02:34:30;2.80;;;1.20;;
68653;SDS011;55636;51.108;13.622;2024-03-29T02:35:31;1.27;;;1.10;;
68653;SDS011;55636;51.108;13.622;2024-03-29T02:36:33;1.63;;;1.10;;
68653;SDS011;55636;51.108;13.622;2024-03-29T02:37:34;1.80;;;1.10;;
68653;SDS011;55636;51.108;13.622;2024-03-29T02:38:36;1.93;;;1.20;;
68653;SDS011;55636;51.108;13.622;2024-03-29T02:39:37;1.47;;;1.10;;
68653;SDS011;55636;51.108;13.622;2024-03-29T02:40:39;2.33;;;1.30;;
68653;SDS011;55636;51.108;13.622;2024-03-29T02:41:40;1.10;;;1.00;;
68653;SDS011;55636;51.108;13.622;2024-03-29T02:42:41;2.37;;;1.07;;
68653;SDS011;55636;51.108;13.622;2024-03-29T02:43:43;1.90;;;1.10;;
68653;SDS011;55636;51.108;13.622;2024-03-29T02:44:46;1.67;;;1.23;;
68653;SDS011;55636;51.108;13.622;2024-03-29T02:45:47;2.20;;;1.23;;
68653;SDS011;55636;51.108;13.622;2024-03-29T02:46:49;0.90;;;0.87;;
68653;SDS011;55636;51.108;13.622;2024-03-29T02:47:50;1.17;;;1.03;;
68653;SDS011;55636;51.108;13.622;2024-03-29T02:48:51;1.20;;;0.87;;
68653;SDS011;55636;51.108;13.622;2024-03-29T02:49:53;2.20;;;1.20;;
68653;SDS011;55636;51.108;13.622;2024-03-29T02:50:54;1.33;;;1.03;;
68653;SDS011;55636;51.108;13.622;2024-03-29T02:51:55;1.87;;;1.00;;
68653;SDS011;55636;51.108;13.622;2024-03-29T02:52:56;1.73;;;1.00;;
68653;SDS011;55636;51.108;13.622;2024-03-29T02:53:57;1.10;;;1.00;;
68653;SDS011;55636;51.108;13.622;2024-03-29T02:54:59;1.40;;;1.17;;
68653;SDS011;55636;51.108;13.622;2024-03-29T02:56:00;1.20;;;1.10;;
68653;SDS011;55636;51.108;13.622;2024-03-29T02:57:01;1.17;;;1.00;;
68653;SDS011;55636;51.108;13.622;2024-03-29T02:58:02;1.73;;;0.90;;
68653;SDS011;55636;51.108;13.622;2024-03-29T02:59:03;1.13;;;1.00;;
68653;SDS011;55636;51.108;13.622;2024-03-29T03:00:05;1.87;;;1.27;;
68653;SDS011;55636;51.108;13.622;2024-03-29T03:01:07;1.97;;;1.40;;
68653;SDS011;55636;51.108;13.622;2024-03-29T03:02:09;1.70;;;1.23;;
68653;SDS011;55636;51.108;13.622;2024-03-29T03:03:10;1.47;;;1.20;;
68653;SDS011;55636;51.108;13.622;2024-03-29T03:04:11;1.37;;;1.10;;
68653;SDS011;55636;51.108;13.622;2024-03-29T03:05:12;1.63;;;1.20;;
68653;SDS011;55636;51.108;13.622;2024-03-29T03:06:14;2.07;;;1.20;;
68653;SDS011;55636;51.108;13.622;2024-03-29T03:07:15;1.60;;;1.10;;
68653;SDS011;55636;51.108;13.622;2024-03-29T03:08:36;1.70;;;1.20;;
68653;SDS011;55636;51.108;13.622;2024-03-29T03:09:56;1.27;;;1.00;;
68653;SDS011;55636;51.108;13.622;2024-03-29T03:11:16;1.30;;;1.20;;
68653;SDS011;55636;51.108;13.622;2024-03-29T03:12:17;2.70;;;1.20;;
68653;SDS011;55636;51.108;13.622;2024-03-29T03:13:18;2.67;;;1.30;;
68653;SDS011;55636;51.108;13.622;2024-03-29T03:14:20;1.43;;;1.10;;
68653;SDS011;55636;51.108;13.622;2024-03-29T03:15:22;1.13;;;0.90;;
68653;SDS011;55636;51.108;13.622;2024-03-29T03:16:24;1.70;;;1.10;;
68653;SDS011;55636;51.108;13.622;2024-03-29T03:17:26;1.10;;;1.00;;
68653;SDS011;55636;51.108;13.622;2024-03-29T03:18:27;1.90;;;1.20;;
68653;SDS011;55636;51.108;13.622;2024-03-29T03:19:28;2.47;;;1.10;;
68653;SDS011;55636;51.108;13.622;2024-03-29T03:20:30;0.97;;;0.97;;
68653;SDS011;55636;51.108;13.622;2024-03-29T03:21:32;1.57;;;1.17;;
68653;SDS011;55636;51.108;13.622;2024-03-29T03:22:35;1.00;;;0.90;;
68653;SDS011;55636;51.108;13.622;2024-03-29T03:23:36;1.77;;;1.37;;
68653;SDS011;55636;51.108;13.622;2024-03-29T03:24:38;2.23;;;1.20;;
68653;SDS011;55636;51.108;13.622;2024-03-29T03:25:39;1.20;;;1.10;;
68653;SDS011;55636;51.108;13.622;2024-03-29T03:26:40;1.57;;;1.10;;
68653;SDS011;55636;51.108;13.622;2024-03-29T03:27:41;1.40;;;1.10;;
68653;SDS011;55636;51.108;13.622;2024-03-29T03:28:42;2.20;;;1.10;;
68653;SDS011;55636;51.108;13.622;2024-03-29T03:29:43;1.30;;;1.20;;
68653;SDS011;55636;51.108;13.622;2024-03-29T03:30:44;2.20;;;1.20;;
68653;SDS011;55636;51.108;13.622;2024-03-29T03:31:45;1.50;;;1.03;;
68653;SDS011;55636;51.108;13.622;2024-03-29T03:32:47;1.70;;;1.10;;
68653;SDS011;55636;51.108;13.622;2024-03-29T03:33:48;1.40;;;1.10;;
68653;SDS011;55636;51.108;13.622;2024-03-29T03:34:49;1.97;;;1.03;;
68653;SDS011;55636;51.108;13.622;2024-03-29T03:35:50;1.30;;;1.10;;
68653;SDS011;55636;51.108;13.622;2024-03-29T03:36:52;1.17;;;1.07;;
68653;SDS011;55636;51.108;13.622;2024-03-29T03:37:54;1.73;;;1.13;;
68653;SDS011;55636;51.108;13.622;2024-03-29T03:38:57;1.27;;;1.10;;
68653;SDS011;55636;51.108;13.622;2024-03-29T03:39:58;2.60;;;1.20;;
68653;SDS011;55636;51.108;13.622;2024-03-29T03:40:59;1.93;;;1.20;;
68653;SDS011;55636;51.108;13.622;2024-03-29T03:42:00;2.20;;;1.30;;
68653;SDS011;55636;51.108;13.622;2024-03-29T03:43:02;1.87;;;1.10;;
68653;SDS011;55636;51.108;13.622;2024-03-29T03:44:05;2.40;;;1.20;;
68653;SDS011;55636;51.108;13.622;2024-03-29T03:45:06;2.20;;;1.30;;
68653;SDS011;55636;51.108;13.622;2024-03-29T03:46:09;1.10;;;1.00;;
68653;SDS011;55636;51.108;13.622;2024-03-29T03:47:10;1.67;;;1.20;;
68653;SDS011;55636;51.108;13.622;2024-03-29T03:48:12;1.67;;;1.10;;
68653;SDS011;55636;51.108;13.622;2024-03-29T03:49:13;1.60;;;1.20;;
68653;SDS011;55636;51.108;13.622;2024-03-29T03:50:14;1.30;;;1.10;;
68653;SDS011;55636;51.108;13.622;2024-03-29T03:51:15;1.80;;;1.20;;
68653;SDS011;55636;51.108;13.622;2024-03-29T03:52:17;1.00;;;0.90;;
68653;SDS011;55636;51.108;13.622;2024-03-29T03:53:18;2.00;;;1.20;;
68653;SDS011;55636;51.108;13.622;2024-03-29T03:54:19;1.40;;;1.20;;
68653;SDS011;55636;51.108;13.622;2024-03-29T03:55:20;1.27;;;1.00;;
68653;SDS011;55636;51.108;13.622;2024-03-29T03:56:22;1.27;;;1.00;;
68653;SDS011;55636;51.108;13.622;2024-03-29T03:57:23;2.30;;;1.40;;
68653;SDS011;55636;51.108;13.622;2024-03-29T03:58:24;1.97;;;1.20;;
68653;SDS011;55636;51.108;13.622;2024-03-29T03:59:25;1.83;;;1.27;;
68653;SDS011;55636;51.108;13.622;2024-03-29T04:00:27;2.40;;;1.20;;
68653;SDS011;55636;51.108;13.622;2024-03-29T04:01:28;2.00;;;1.23;;
68653;SDS011;55636;51.108;13.622;2024-03-29T04:02:29;1.47;;;1.00;;
68653;SDS011;55636;51.108;13.622;2024-03-29T04:03:30;2.23;;;1.13;;
68653;SDS011;55636;51.108;13.622;2024-03-29T04:04:32;1.53;;;1.20;;
68653;SDS011;55636;51.108;13.622;2024-03-29T04:05:36;2.27;;;1.40;;
68653;SDS011;55636;51.108;13.622;2024-03-29T04:06:37;2.03;;;1.40;;
68653;SDS011;55636;51.108;13.622;2024-03-29T04:07:39;1.80;;;1.30;;
68653;SDS011;55636;51.108;13.622;2024-03-29T04:08:40;2.43;;;1.40;;
68653;SDS011;55636;51.108;13.622;2024-03-29T04:09:41;1.80;;;1.40;;
68653;SDS011;55636;51.108;13.622;2024-03-29T04:10:43;1.20;;;1.10;;
68653;SDS011;55636;51.108;13.622;2024-03-29T04:11:44;1.50;;;1.20;;
68653;SDS011;55636;51.108;13.622;2024-03-29T04:12:45;2.13;;;1.50;;
68653;SDS011;55636;51.108;13.622;2024-03-29T04:13:46;2.07;;;1.50;;
68653;SDS011;55636;51.108;13.622;2024-03-29T04:14:47;1.57;;;1.40;;
68653;SDS011;55636;51.108;13.622;2024-03-29T04:15:48;2.07;;;1.63;;
68653;SDS011;55636;51.108;13.622;2024-03-29T04:16:50;3.20;;;1.63;;
68653;SDS011;55636;51.108;13.622;2024-03-29T04:17:51;2.63;;;1.50;;
68653;SDS011;55636;51.108;13.622;2024-03-29T04:18:53;1.57;;;1.43;;
68653;SDS011;55636;51.108;13.622;2024-03-29T04:19:54;2.50;;;1.40;;
68653;SDS011;55636;51.108;13.622;2024-03-29T04:21:02;1.70;;;1.40;;
68653;SDS011;55636;51.108;13.622;2024-03-29T04:22:04;2.40;;;1.70;;
68653;SDS011;55636;51.108;13.622;2024-03-29T04:23:07;2.73;;;1.70;;
68653;SDS011;55636;51.108;13.622;2024-03-29T04:24:08;2.43;;;1.70;;
68653;SDS011;55636;51.108;13.622;2024-03-29T04:25:11;1.90;;;1.60;;
68653;SDS011;55636;51.108;13.622;2024-03-29T04:26:12;2.97;;;1.70;;
68653;SDS011;55636;51.108;13.622;2024-03-29T04:27:15;2.67;;;1.70;;
68653;SDS011;55636;51.108;13.622;2024-03-29T04:28:16;1.93;;;1.53;;
68653;SDS011;55636;51.108;13.622;2024-03-29T04:29:17;2.00;;;1.70;;
68653;SDS011;55636;51.108;13.622;2024-03-29T04:30:18;2.37;;;1.73;;
68653;SDS011;55636;51.108;13.622;2024-03-29T04:31:20;3.07;;;1.73;;
68653;SDS011;55636;51.108;13.622;2024-03-29T04:32:21;2.63;;;1.67;;
68653;SDS011;55636;51.108;13.622;2024-03-29T04:33:23;2.03;;;1.60;;
68653;SDS011;55636;51.108;13.622;2024-03-29T04:34:25;2.50;;;1.47;;
68653;SDS011;55636;51.108;13.622;2024-03-29T04:35:26;1.80;;;1.50;;
68653;SDS011;55636;51.108;13.622;2024-03-29T04:36:27;1.73;;;1.60;;
68653;SDS011;55636;51.108;13.622;2024-03-29T04:37:28;2.63;;;1.50;;
68653;SDS011;55636;51.108;13.622;2024-03-29T04:38:30;2.23;;;1.70;;
68653;SDS011;55636;51.108;13.622;2024-03-29T04:39:32;2.20;;;1.70;;
68653;SDS011;55636;51.108;13.622;2024-03-29T04:40:34;1.90;;;1.50;;
68653;SDS011;55636;51.108;13.622;2024-03-29T04:41:35;2.93;;;1.70;;
68653;SDS011;55636;51.108;13.622;2024-03-29T04:42:37;1.87;;;1.27;;
68653;SDS011;55636;51.108;13.622;2024-03-29T04:43:39;2.13;;;1.47;;
68653;SDS011;55636;51.108;13.622;2024-03-29T04:44:41;2.13;;;1.40;;
68653;SDS011;55636;51.108;13.622;2024-03-29T04:45:43;1.73;;;1.50;;
68653;SDS011;55636;51.108;13.622;2024-03-29T04:46:45;1.90;;;1.57;;
68653;SDS011;55636;51.108;13.622;2024-03-29T04:47:46;1.87;;;1.43;;
68653;SDS011;55636;51.108;13.622;2024-03-29T04:48:50;2.07;;;1.50;;
68653;SDS011;55636;51.108;13.622;2024-03-29T04:49:51;1.57;;;1.43;;
68653;SDS011;55636;51.108;13.622;2024-03-29T04:50:52;1.87;;;1.50;;
68653;SDS011;55636;51.108;13.622;2024-03-29T04:51:53;2.03;;;1.70;;
68653;SDS011;55636;51.108;13.622;2024-03-29T04:52:54;1.90;;;1.47;;
68653;SDS011;55636;51.108;13.622;2024-03-29T04:53:56;1.70;;;1.60;;
68653;SDS011;55636;51.108;13.622;2024-03-29T04:54:57;2.10;;;1.57;;
68653;SDS011;55636;51.108;13.622;2024-03-29T04:55:58;1.80;;;1.57;;
68653;SDS011;55636;51.108;13.622;2024-03-29T04:57:00;3.43;;;1.70;;
68653;SDS011;55636;51.108;13.622;2024-03-29T04:58:02;1.90;;;1.50;;
68653;SDS011;55636;51.108;13.622;2024-03-29T04:59:04;2.17;;;1.60;;
68653;SDS011;55636;51.108;13.622;2024-03-29T05:00:08;2.10;;;1.63;;
68653;SDS011;55636;51.108;13.622;2024-03-29T05:01:10;2.07;;;1.60;;
68653;SDS011;55636;51.108;13.622;2024-03-29T05:02:11;3.23;;;1.63;;
68653;SDS011;55636;51.108;13.622;2024-03-29T05:03:12;1.70;;;1.50;;
68653;SDS011;55636;51.108;13.622;2024-03-29T05:04:14;2.07;;;1.60;;
68653;SDS011;55636;51.108;13.622;2024-03-29T05:05:17;2.27;;;1.50;;
68653;SDS011;55636;51.108;13.622;2024-03-29T05:06:19;1.73;;;1.50;;
68653;SDS011;55636;51.108;13.622;2024-03-29T05:07:20;1.53;;;1.40;;
68653;SDS011;55636;51.108;13.622;2024-03-29T05:08:21;2.20;;;1.47;;
68653;SDS011;55636;51.108;13.622;2024-03-29T05:09:24;2.50;;;1.60;;
68653;SDS011;55636;51.108;13.622;2024-03-29T05:10:26;2.80;;;1.60;;
68653;SDS011;55636;51.108;13.622;2024-03-29T05:11:27;1.43;;;1.33;;
68653;SDS011;55636;51.108;13.622;2024-03-29T05:12:31;1.77;;;1.40;;
68653;SDS011;55636;51.108;13.622;2024-03-29T05:13:32;1.70;;;1.60;;
68653;SDS011;55636;51.108;13.622;2024-03-29T05:14:33;2.17;;;1.60;;
68653;SDS011;55636;51.108;13.622;2024-03-29T05:15:34;2.27;;;1.60;;
68653;SDS011;55636;51.108;13.622;2024-03-29T05:16:35;1.60;;;1.50;;
68653;SDS011;55636;51.108;13.622;2024-03-29T05:17:37;1.77;;;1.57;;
68653;SDS011;55636;51.108;13.622;2024-03-29T05:18:38;3.03;;;1.50;;
68653;SDS011;55636;51.108;13.622;2024-03-29T05:19:39;1.67;;;1.43;;
68653;SDS011;55636;51.108;13.622;2024-03-29T05:20:41;1.80;;;1.40;;
68653;SDS011;55636;51.108;13.622;2024-03-29T05:21:47;2.17;;;1.73;;
68653;SDS011;55636;51.108;13.622;2024-03-29T05:22:49;1.77;;;1.50;;
68653;SDS011;55636;51.108;13.622;2024-03-29T05:23:51;3.27;;;1.50;;
68653;SDS011;55636;51.108;13.622;2024-03-29T05:24:52;2.80;;;1.77;;
68653;SDS011;55636;51.108;13.622;2024-03-29T05:25:55;2.83;;;1.80;;
68653;SDS011;55636;51.108;13.622;2024-03-29T05:26:56;2.70;;;1.80;;
68653;SDS011;55636;51.108;13.622;2024-03-29T05:27:57;1.83;;;1.50;;
68653;SDS011;55636;51.108;13.622;2024-03-29T05:28:58;1.77;;;1.60;;
68653;SDS011;55636;51.108;13.622;2024-03-29T05:30:01;1.97;;;1.60;;
68653;SDS011;55636;51.108;13.622;2024-03-29T05:31:10;1.77;;;1.60;;
68653;SDS011;55636;51.108;13.622;2024-03-29T05:32:13;2.17;;;1.70;;
68653;SDS011;55636;51.108;13.622;2024-03-29T05:33:15;1.60;;;1.50;;
68653;SDS011;55636;51.108;13.622;2024-03-29T05:34:17;1.70;;;1.50;;
68653;SDS011;55636;51.108;13.622;2024-03-29T05:35:19;2.30;;;1.50;;
68653;SDS011;55636;51.108;13.622;2024-03-29T05:36:20;4.30;;;1.80;;
68653;SDS011;55636;51.108;13.622;2024-03-29T05:37:22;1.60;;;1.50;;
68653;SDS011;55636;51.108;13.622;2024-03-29T05:38:25;1.80;;;1.50;;
68653;SDS011;55636;51.108;13.622;2024-03-29T05:39:27;1.90;;;1.70;;
68653;SDS011;55636;51.108;13.622;2024-03-29T05:40:28;2.57;;;1.90;;
68653;SDS011;55636;51.108;13.622;2024-03-29T05:41:32;2.27;;;1.77;;
68653;SDS011;55636;51.108;13.622;2024-03-29T05:42:33;2.47;;;1.90;;
68653;SDS011;55636;51.108;13.622;2024-03-29T05:43:38;3.43;;;1.90;;
68653;SDS011;55636;51.108;13.622;2024-03-29T05:44:39;2.10;;;1.90;;
68653;SDS011;55636;51.108;13.622;2024-03-29T05:45:41;3.80;;;2.03;;
68653;SDS011;55636;51.108;13.622;2024-03-29T05:46:43;2.53;;;1.80;;
68653;SDS011;55636;51.108;13.622;2024-03-29T05:47:44;2.37;;;1.80;;
68653;SDS011;55636;51.108;13.622;2024-03-29T05:48:45;2.00;;;1.70;;
68653;SDS011;55636;51.108;13.622;2024-03-29T05:49:47;2.47;;;1.70;;
68653;SDS011;55636;51.108;13.622;2024-03-29T05:50:48;2.13;;;1.70;;
68653;SDS011;55636;51.108;13.622;2024-03-29T05:51:50;1.93;;;1.57;;
68653;SDS011;55636;51.108;13.622;2024-03-29T05:52:53;2.60;;;1.67;;
68653;SDS011;55636;51.108;13.622;2024-03-29T05:53:54;2.47;;;1.80;;
68653;SDS011;55636;51.108;13.622;2024-03-29T05:54:57;2.47;;;1.97;;
68653;SDS011;55636;51.108;13.622;2024-03-29T05:56:04;3.47;;;1.80;;
68653;SDS011;55636;51.108;13.622;2024-03-29T05:57:05;3.27;;;1.77;;
68653;SDS011;55636;51.108;13.622;2024-03-29T05:58:10;2.23;;;1.67;;
68653;SDS011;55636;51.108;13.622;2024-03-29T05:59:11;2.13;;;1.90;;
68653;SDS011;55636;51.108;13.622;2024-03-29T06:00:13;2.57;;;1.97;;
68653;SDS011;55636;51.108;13.622;2024-03-29T06:01:15;2.47;;;2.00;;
68653;SDS011;55636;51.108;13.622;2024-03-29T06:02:16;2.40;;;1.63;;
68653;SDS011;55636;51.108;13.622;2024-03-29T06:03:18;3.13;;;1.67;;
68653;SDS011;55636;51.108;13.622;2024-03-29T06:04:19;2.43;;;1.90;;
68653;SDS011;55636;51.108;13.622;2024-03-29T06:05:25;2.03;;;1.60;;
68653;SDS011;55636;51.108;13.622;2024-03-29T06:06:27;1.70;;;1.60;;
68653;SDS011;55636;51.108;13.622;2024-03-29T06:07:28;1.77;;;1.43;;